Aviation Digital Data Service (ADDS)

Output produced by METARs form (0338 UTC 26 October 2014)
found at http://aviationweather.gov/adds/metars/
 
KFAY 252320Z 2600/2624 26005KT P6SM SKC 
     TEMPO 2612/2615 30012KT 
     FM261500 30013G20KT P6SM SKC